Biggs Army Air Field (Fort Bliss) Fort Bliss,El Paso US
ICAO: KBIF
IATA: BIF
Category: Medium
Scheduled Services: No

Elevation: 3946 ft
TransAlt. 18000 ft.

Airport Communications:
EL PASO APP:119.15
EL PASO CLNC DEL:125
EL PASO DEP:121.3
GND:121.6
ANG OPS:49.95
PTD:122.7
TWR:127.9

KBIF Zoom In..

Runways:

(A) RW 03 length 13554 ft width 150 ft
---- / hdg 32

(B) RW 21 length 13554 ft width 150 ft
---- / hdg 212

Location; KBIF
Day. 22 / Time. 00.58 Zulu
* Altimeter: 30.03
* Temperature: 23° c. 73.4°f.
* Wind from: 040° Speed 03 kn.
Dewpoint: -04° c.
Visibility: 9 Statute Miles.
Clouds: Clear (automated report).

KBIF 220058Z AUTO 04003KT 9SM CLR 23/M04 A3003 RMK AO2 SLP124 T02281036 $


Wind From 040°
Speed 03 kn.

  YouTube Music Video
 
jpsmedia.com for Web Design  worldairports.se 2018   terms of use